map of SOZ home
SOZ - Airport
Location
City:  Solenzara, Corse (Corsica), France
Name:Solenzara Airport
ICAO:LFKS
IATA:SOZ

Details
Type:Airport (Aerodrome, Airfield)
Use:Military
Latitude:4155'35"N (41.926389)
Longitude:924'19"E (9.405278)
Elevation:28 ft (9 m)
Variation:2.40E (WMM2015 magnetic declination)
0.11 annual change
Runways:1
Longest:8619 × 148 ft (2627 × 45 m)

Time
Time Zone:UTC+1 (DST+2)
Local Time:

Weather
METAR:LFKS 241700Z AUTO 11004KT 060V140 CAVOK 28/19 Q1015
TAF:LFKS 241533Z 2415/2515 CNL= TAF
AMD LFLS 241531Z 2415/2515 36005KT CAVOK PROB40
TEMPO 2418/2421 VRB20G35KT 4000 TSRA SCT035CB BKN060TCU

Related Locations
Nearby:
Farthest:CHT: 12114 mi / 19496 km
Waitangi [Tuuta], CIT, NZ

Find:

   beyond  
but within

Other Information
Maps:
NOTAMs:
Links:
Sources:

  
flag of France
flag of Corse (Corsica)
  

Sectional Chart

Flight Planning
at skyvector.com

Satellite Image

Google Maps Satellite view

 

Copyright © 2004-2017 Karl L. Swartz. All rights reserved.
The Great Circle Mapper name and logo are trademarks of the Great Circle Mapper.
All other trademarks mentioned herein belong to their respective owners.
Please see credits for attibutions and further copyright information.

  Follow gcmap on Facebook Follow gcmap on Twitter Follow gcmap on Google+ GCmap on LinkedIn

hCard Microformat

Geo Microformat